Time;durP1;ratioP1;P1;durP2;ratioP2;P2;SDS_P1;SDS_P2;PMS_P1;PMS_P2;Temp;Humidity;BMP_temperature;BMP_pressure;BME280_temperature;BME280_humidity;BME280_pressure;Samples;Min_cycle;Max_cycle;Signal;HPM_P1;HPM_P2
2022/01/28 00:00:32;;;;;;;;;;;;;;;4.27;72.73;102296.44;6251291;23;19953;-74
2022/01/28 00:03:21;;;;;;;;;;;;;;;4.26;72.21;102294.75;6223702;23;19929;-76
2022/01/28 00:05:46;;;;;;;;;;;;;;;4.21;72.44;102286.31;6232302;23;19907;-72
2022/01/28 00:08:12;;;;;;;;;;;;;;;4.18;72.86;102298.34;6228943;23;19903;-74
2022/01/28 00:11:11;;;;;;;;;;;;;;;4.15;72.79;102292.47;6256576;23;19919;-77
2022/01/28 00:13:39;;;;;;;;;;;;;;;4.11;72.61;102291.97;6257110;22;19912;-73
2022/01/28 00:38:10;;;;;;;;;;;;;;;4.18;74.38;102320.03;6255509;23;19929;-74
2022/01/28 00:40:36;;;;;;;;;;;;;;;4.22;74.35;102308.81;6227671;23;19954;-75
2022/01/28 00:43:02;;;;;;;;;;;;;;;4.24;74.55;102314.94;6228714;23;19903;-74
2022/01/28 00:45:28;;;;;;;;;;;;;;;4.23;74.44;102314.06;6226627;23;19904;-75
2022/01/28 00:48:12;;;;;;;;;;;;;;;;;;;;;
2022/01/28 00:50:41;;;;;;;;;;;;;;;4.19;74.50;102321.72;6228398;23;19941;-74
2022/01/28 00:53:07;;;;;;;;;;;;;;;4.17;74.48;102322.91;6254688;23;19927;-77
2022/01/28 00:55:32;;;;;;;;;;;;;;;4.14;74.24;102324.09;6227274;23;19910;-77
2022/01/28 00:57:58;;;;;;;;;;;;;;;4.12;74.58;102320.72;6228282;23;19903;-76
2022/01/28 01:00:23;;;;;;;;;;;;;;;4.13;73.98;102321.56;6226759;23;19912;-76
2022/01/28 01:02:49;;;;;;;;;;;;;;;4.09;74.36;102314.81;6225080;23;19907;-75
2022/01/28 01:05:22;;;;;;;;;;;;;;;4.02;74.69;102323.66;6252319;23;19904;-76
2022/01/28 01:07:47;;;;;;;;;;;;;;;3.96;74.18;102313.53;6255353;23;19910;-78
2022/01/28 01:10:20;;;;;;;;;;;;;;;3.91;74.15;102318.59;6228772;23;20126;-78
2022/01/28 01:12:47;;;;;;;;;;;;;;;3.85;74.11;102316.59;6254475;22;20299;-79
2022/01/28 01:15:16;;;;;;;;;;;;;;;3.79;74.42;102314.59;6228159;23;19903;-76
2022/01/28 01:17:53;;;;;;;;;;;;;;;3.80;74.55;102316.31;6228571;23;19907;-77
2022/01/28 01:20:36;;;;;;;;;;;;;;;3.80;74.89;102327.13;6224775;23;19926;-78
2022/01/28 01:23:49;;;;;;;;;;;;;;;3.81;74.99;102329.66;6255961;23;19903;-77
2022/01/28 01:26:15;;;;;;;;;;;;;;;3.81;74.70;102334.22;6239689;23;19904;-76
2022/01/28 01:29:00;;;;;;;;;;;;;;;3.80;74.60;102335.25;6227830;23;19907;-77
2022/01/28 01:31:26;;;;;;;;;;;;;;;3.79;74.62;102341.66;6227559;23;19914;-76
2022/01/28 01:34:39;;;;;;;;;;;;;;;3.75;74.68;102335.78;6228117;23;19908;-76
2022/01/28 01:36:46;;;;;;;;;;;;;;;3.71;74.53;102336.28;6235015;23;19968;-77
2022/01/28 01:39:29;;;;;;;;;;;;;;;3.69;74.87;102346.44;6227863;23;19903;-79
2022/01/28 01:42:05;;;;;;;;;;;;;;;3.67;74.69;102350.16;6227996;23;19907;-77
2022/01/28 01:44:56;;;;;;;;;;;;;;;3.67;75.02;102355.56;6226568;23;19973;-79
2022/01/28 01:52:02;;;;;;;;;;;;;;;3.66;74.51;102353.03;6255047;23;19930;-79
2022/01/28 01:53:13;;;;;;;;;;;;;;;3.63;74.66;102353.38;6254643;23;20222;-78
2022/01/28 01:55:38;;;;;;;;;;;;;;;3.59;74.88;102352.91;6228399;23;19904;-77
2022/01/28 01:58:03;;;;;;;;;;;;;;;3.57;74.45;102354.91;6229166;23;19964;-77
2022/01/28 02:00:39;;;;;;;;;;;;;;;3.54;74.76;102349.84;6229335;23;19903;-77
2022/01/28 02:03:16;;;;;;;;;;;;;;;;;;;;;
2022/01/28 02:05:42;;;;;;;;;;;;;;;3.46;74.83;102348.00;6255431;23;19930;-78
2022/01/28 02:08:08;;;;;;;;;;;;;;;3.51;74.59;102355.59;6228274;23;19904;-79
2022/01/28 02:10:43;;;;;;;;;;;;;;;3.52;74.40;102351.91;6227399;23;19912;-77
2022/01/28 02:13:16;;;;;;;;;;;;;;;3.51;74.78;102350.19;6224232;23;19930;-77
2022/01/28 02:15:44;;;;;;;;;;;;;;;3.51;74.93;102355.59;6228977;23;19986;-79
2022/01/28 02:18:10;;;;;;;;;;;;;;;3.51;74.61;102339.38;6254539;23;19912;-78
2022/01/28 02:20:47;;;;;;;;;;;;;;;;;;;;;
2022/01/28 02:23:13;;;;;;;;;;;;;;;3.50;74.97;102348.50;6254905;23;19942;-78
2022/01/28 02:25:57;;;;;;;;;;;;;;;3.47;75.06;102343.44;6255586;23;19904;-78
2022/01/28 02:28:24;;;;;;;;;;;;;;;3.44;75.22;102351.91;6203206;23;19911;-76
2022/01/28 02:30:53;;;;;;;;;;;;;;;3.42;75.30;102349.38;6227209;23;19951;-76
2022/01/28 02:33:21;;;;;;;;;;;;;;;3.40;75.50;102347.84;6253598;23;19911;-76
2022/01/28 02:36:20;;;;;;;;;;;;;;;3.38;75.36;102349.88;6228242;23;19904;-79
2022/01/28 02:38:55;;;;;;;;;;;;;;;;;;;;;
2022/01/28 02:41:24;;;;;;;;;;;;;;;3.37;75.60;102343.59;6255109;23;19927;-79
2022/01/28 02:46:38;;;;;;;;;;;;;;;3.38;75.54;102339.06;6133287;23;19924;-77
2022/01/28 02:52:17;;;;;;;;;;;;;;;3.39;75.29;102346.13;6167188;23;19907;-78
2022/01/28 02:54:46;;;;;;;;;;;;;;;3.40;75.30;102337.03;6227276;23;19911;-75
2022/01/28 02:57:22;;;;;;;;;;;;;;;;;;;;;
2022/01/28 02:59:48;;;;;;;;;;;;;;;3.78;76.26;102340.84;6253587;23;19930;-74
2022/01/28 03:02:16;;;;;;;;;;;;;;;3.81;75.00;102342.31;6253253;23;19908;-75
2022/01/28 03:07:16;;;;;;;;;;;;;;;3.57;74.38;102354.91;6227763;23;19915;-75
2022/01/28 03:12:58;;;;;;;;;;;;;;;3.36;74.63;102346.50;6146139;23;19964;-74
2022/01/28 03:15:22;;;;;;;;;;;;;;;3.28;74.92;102347.34;6251983;23;19912;-74
2022/01/28 03:18:51;;;;;;;;;;;;;;;3.23;74.80;102342.47;6253730;23;19910;-74
2022/01/28 03:21:11;;;;;;;;;;;;;;;;;;;;;
2022/01/28 03:24:50;;;;;;;;;;;;;;;3.08;74.71;102350.41;6252380;23;19946;-74
2022/01/28 03:26:52;;;;;;;;;;;;;;;3.02;74.82;102340.25;6232954;23;19910;-75
2022/01/28 03:29:20;;;;;;;;;;;;;;;2.97;74.59;102343.47;6254722;23;19914;-74
2022/01/28 03:31:46;;;;;;;;;;;;;;;2.91;74.71;102338.75;6254259;23;19907;-75
2022/01/28 03:34:13;;;;;;;;;;;;;;;2.88;74.61;102340.94;6225493;23;19910;-77
2022/01/28 03:36:39;;;;;;;;;;;;;;;2.83;74.66;102340.59;6227939;23;19938;-78
2022/01/28 03:39:15;;;;;;;;;;;;;;;;;;;;;
2022/01/28 03:42:14;;;;;;;;;;;;;;;;;;;;;
2022/01/28 03:44:40;;;;;;;;;;;;;;;2.70;74.99;102330.28;6253315;23;19934;-74
2022/01/28 03:47:05;;;;;;;;;;;;;;;2.67;75.17;102326.03;6226705;23;19904;-75
2022/01/28 03:56:04;;;;;;;;;;;;;;;2.49;74.75;102328.88;6085099;23;19912;-75
2022/01/28 03:58:33;;;;;;;;;;;;;;;2.47;74.98;102325.53;6112623;23;19936;-75
2022/01/28 04:00:59;;;;;;;;;;;;;;;2.46;75.16;102323.81;6159950;23;20006;-74
2022/01/28 04:11:31;;;;;;;;;;;;;;;2.43;74.74;102318.75;6253260;23;19919;-78
2022/01/28 04:19:36;;;;;;;;;;;;;;;2.40;75.01;102336.13;6252875;23;19914;-78
2022/01/28 04:22:05;;;;;;;;;;;;;;;2.40;75.08;102322.63;6200625;23;19907;-79
2022/01/28 04:24:30;;;;;;;;;;;;;;;2.43;75.03;102334.97;6253712;23;19923;-77
2022/01/28 04:27:06;;;;;;;;;;;;;;;;;;;;;
2022/01/28 04:29:42;;;;;;;;;;;;;;;2.49;75.10;102318.09;6252794;23;19938;-78
2022/01/28 04:32:18;;;;;;;;;;;;;;;2.53;74.89;102316.75;6226061;23;19914;-79
2022/01/28 04:35:01;;;;;;;;;;;;;;;2.55;75.44;102317.41;6226307;23;19907;-77
2022/01/28 04:40:13;;;;;;;;;;;;;;;2.63;75.23;102308.50;6227200;23;19908;-79
2022/01/28 04:42:58;;;;;;;;;;;;;;;2.73;75.21;102324.53;6252228;23;19903;-78
2022/01/28 05:27:35;;;;;;;;;;;;;;;2.14;74.90;102330.81;6264604;23;19912;-79
2022/01/28 05:30:13;;;;;;;;;;;;;;;2.09;74.43;102333.19;6228495;23;19908;-78
2022/01/28 05:35:26;;;;;;;;;;;;;;;1.97;74.81;102329.06;6262124;23;19907;-78
2022/01/28 05:37:53;;;;;;;;;;;;;;;1.94;74.86;102326.69;6261221;23;19910;-80
2022/01/28 05:40:28;;;;;;;;;;;;;;;1.90;74.74;102339.66;6242238;23;19898;-80
2022/01/28 05:42:56;;;;;;;;;;;;;;;1.87;74.25;102334.56;6241576;23;19923;-81
2022/01/28 05:45:29;;;;;;;;;;;;;;;1.84;74.92;102341.16;6264625;23;20293;-80
2022/01/28 05:47:57;;;;;;;;;;;;;;;1.84;75.07;102334.91;6239391;23;19903;-80
2022/01/28 05:50:23;;;;;;;;;;;;;;;1.81;74.41;102336.09;6245157;23;19908;-82
2022/01/28 05:52:51;;;;;;;;;;;;;;;1.78;74.46;102330.16;6219226;23;19916;-81
2022/01/28 05:55:26;;;;;;;;;;;;;;;1.74;74.89;102335.03;6213003;22;19895;-81
2022/01/28 05:57:51;;;;;;;;;;;;;;;1.70;74.98;102339.06;6201815;23;19910;-80
2022/01/28 06:00:22;;;;;;;;;;;;;;;1.66;74.92;102338.50;6224799;23;19904;-81
2022/01/28 06:05:57;;;;;;;;;;;;;;;1.56;75.17;102351.28;6225402;23;19907;-76
2022/01/28 06:08:22;;;;;;;;;;;;;;;1.53;75.11;102355.16;6227808;23;19951;-77
2022/01/28 06:10:47;;;;;;;;;;;;;;;1.51;74.42;102357.13;6223199;23;19908;-79
2022/01/28 06:13:13;;;;;;;;;;;;;;;1.49;74.80;102359.16;6194833;23;19937;-79
2022/01/28 06:15:39;;;;;;;;;;;;;;;1.46;74.64;102369.41;6194850;23;19962;-78
2022/01/28 06:18:04;;;;;;;;;;;;;;;1.45;75.41;102379.34;6170480;23;19908;-79
2022/01/28 06:20:30;;;;;;;;;;;;;;;1.43;74.96;102380.50;6194020;23;19904;-77
2022/01/28 06:22:58;;;;;;;;;;;;;;;1.39;74.65;102385.38;6194000;23;20361;-76
2022/01/28 06:25:23;;;;;;;;;;;;;;;1.38;74.84;102399.84;6192782;23;19907;-76
2022/01/28 06:27:53;;;;;;;;;;;;;;;1.39;75.76;102396.16;6221444;23;20018;-78
2022/01/28 06:30:20;;;;;;;;;;;;;;;1.39;74.88;102401.56;6194494;23;19908;-77
2022/01/28 06:32:47;;;;;;;;;;;;;;;1.36;76.02;102385.69;6171233;23;19914;-77
2022/01/28 06:35:12;;;;;;;;;;;;;;;1.34;75.47;102387.69;6221481;23;19904;-77
2022/01/28 06:37:42;;;;;;;;;;;;;;;1.35;75.72;102382.13;6221404;23;19907;-77
2022/01/28 06:40:10;;;;;;;;;;;;;;;1.34;75.78;102371.50;6193845;23;19911;-77
2022/01/28 06:42:35;;;;;;;;;;;;;;;1.31;75.59;102372.66;6196674;23;19915;-77
2022/01/28 06:45:01;;;;;;;;;;;;;;;1.29;76.38;102381.94;6195737;23;19903;-76
2022/01/28 06:47:26;;;;;;;;;;;;;;;1.27;75.76;102371.31;6196667;23;20274;-76
2022/01/28 06:49:52;;;;;;;;;;;;;;;1.24;76.73;102385.06;6196879;23;19911;-78
2022/01/28 06:52:17;;;;;;;;;;;;;;;1.19;76.68;102377.47;6222465;23;20216;-76
2022/01/28 06:54:43;;;;;;;;;;;;;;;1.15;76.05;102373.38;6197746;23;19962;-76
2022/01/28 06:57:08;;;;;;;;;;;;;;;1.11;76.32;102376.53;6193796;23;19904;-75
2022/01/28 06:59:38;;;;;;;;;;;;;;;1.07;76.48;102376.03;6195734;23;19912;-77
2022/01/28 07:02:03;;;;;;;;;;;;;;;1.07;76.89;102370.63;6223303;23;19904;-79
2022/01/28 07:04:31;;;;;;;;;;;;;;;1.07;76.82;102380.53;6223380;23;19931;-77
2022/01/28 07:06:56;;;;;;;;;;;;;;;1.10;76.85;102359.53;6196844;23;19931;-77
2022/01/28 07:09:24;;;;;;;;;;;;;;;1.12;76.92;102368.31;6199289;23;19983;-78
2022/01/28 07:11:52;;;;;;;;;;;;;;;1.17;77.22;102375.94;6197135;23;19919;-77
2022/01/28 07:14:17;;;;;;;;;;;;;;;1.22;77.50;102397.88;6196412;23;20526;-76
2022/01/28 07:16:43;;;;;;;;;;;;;;;1.27;77.28;102405.50;6225382;23;19999;-77
2022/01/28 07:19:09;;;;;;;;;;;;;;;1.31;77.58;102406.88;6174970;23;20317;-78
2022/01/28 07:21:35;;;;;;;;;;;;;;;1.37;78.21;102403.53;6226744;23;19950;-77
2022/01/28 07:24:01;;;;;;;;;;;;;;;1.41;78.34;102399.53;6238207;22;19912;-75
2022/01/28 07:26:26;;;;;;;;;;;;;;;1.46;77.91;102399.94;6215566;23;19903;-77
2022/01/28 07:28:52;;;;;;;;;;;;;;;1.50;78.01;102398.59;6188827;23;19959;-78
2022/01/28 07:31:19;;;;;;;;;;;;;;;1.54;77.90;102399.97;6183020;23;19919;-79
2022/01/28 07:36:47;;;;;;;;;;;;;;;1.63;78.37;102391.94;6225729;23;19910;-79
2022/01/28 07:39:47;;;;;;;;;;;;;;;;;;;;;
2022/01/28 07:42:25;;;;;;;;;;;;;;;1.66;78.74;102389.75;6216355;23;19911;-81
2022/01/28 07:48:15;;;;;;;;;;;;;;;1.60;78.40;102376.09;6066004;23;19906;-79
2022/01/28 07:50:43;;;;;;;;;;;;;;;1.56;77.73;102379.09;6210491;23;19896;-78
2022/01/28 07:53:16;;;;;;;;;;;;;;;1.53;78.21;102376.72;6187502;23;19908;-80
2022/01/28 07:55:44;;;;;;;;;;;;;;;1.51;77.91;102367.94;6183760;23;19914;-81
2022/01/28 07:58:27;;;;;;;;;;;;;;;;;;;;;
2022/01/28 08:07:32;;;;;;;;;;;;;;;1.43;77.79;102397.56;6072698;23;19940;-75
2022/01/28 08:10:07;;;;;;;;;;;;;;;;;;;;;
2022/01/28 08:28:35;;;;;;;;;;;;;;;2.49;78.29;102431.53;6132512;23;19953;-76
2022/01/28 08:34:31;;;;;;;;;;;;;;;2.86;77.79;102449.22;6136768;23;19905;-79
2022/01/28 08:37:45;;;;;;;;;;;;;;;;;;;;;
2022/01/28 08:40:33;;;;;;;;;;;;;;;3.10;77.56;102445.69;6112658;23;19932;-79
2022/01/28 08:46:08;;;;;;;;;;;;;;;3.24;77.09;102429.81;6206729;23;19904;-77
2022/01/28 08:48:33;;;;;;;;;;;;;;;3.23;76.80;102428.97;6216529;23;19911;-78
2022/01/28 08:50:59;;;;;;;;;;;;;;;3.24;76.57;102432.53;6198488;23;19948;-78
2022/01/28 08:53:24;;;;;;;;;;;;;;;3.30;76.51;102439.94;6224032;23;19978;-77
2022/01/28 08:55:50;;;;;;;;;;;;;;;3.41;76.37;102441.50;6195600;23;20303;-76
2022/01/28 09:02:03;;;;;;;;;;;;;;;3.85;75.38;102449.22;6016512;23;19906;-79
2022/01/28 09:10:57;;;;;;;;;;;;;;;4.27;74.37;102442.69;6077688;23;19914;-76
2022/01/28 09:13:37;;;;;;;;;;;;;;;4.40;74.53;102441.31;6056422;23;19905;-76
2022/01/28 09:19:48;;;;;;;;;;;;;;;4.47;73.93;102432.31;6000999;23;19921;-78
2022/01/28 09:22:19;;;;;;;;;;;;;;;4.51;73.91;102443.63;6014015;23;19934;-78
2022/01/28 09:24:55;;;;;;;;;;;;;;;4.51;73.36;102447.19;6021958;23;19909;-77
2022/01/28 09:36:47;;;;;;;;;;;;;;;4.31;73.42;102444.03;5988980;24;20472;-76
2022/01/28 09:43:07;;;;;;;;;;;;;;;;;;;;;
2022/01/28 09:52:13;;;;;;;;;;;;;;;5.26;70.73;102453.03;5865022;24;19918;-75
2022/01/28 09:55:14;;;;;;;;;;;;;;;;;;;;;
2022/01/28 09:57:53;;;;;;;;;;;;;;;;;;;;;
2022/01/28 10:06:47;;;;;;;;;;;;;;;5.15;70.74;102461.56;5905193;24;19918;-75
2022/01/28 10:09:51;;;;;;;;;;;;;;;5.26;71.67;102463.88;5883231;24;19942;-77
2022/01/28 10:24:29;;;;;;;;;;;;;;;7.46;70.59;102476.97;5988831;24;19987;-76
2022/01/28 10:27:07;;;;;;;;;;;;;;;;;;;;;
2022/01/28 10:30:01;;;;;;;;;;;;;;;9.05;68.69;102496.44;5997488;23;19945;-77
2022/01/28 10:32:28;;;;;;;;;;;;;;;9.54;67.82;102511.66;6021140;23;19910;-78
2022/01/28 10:35:22;;;;;;;;;;;;;;;9.83;67.23;102515.06;6119045;23;20485;-76
2022/01/28 10:38:02;;;;;;;;;;;;;;;10.05;65.74;102506.66;6097289;23;19905;-77
2022/01/28 10:43:40;;;;;;;;;;;;;;;;;;;;;
2022/01/28 10:49:27;;;;;;;;;;;;;;;;;;;;;
2022/01/28 10:52:07;;;;;;;;;;;;;;;11.78;58.59;102463.09;6210705;23;19938;-78
2022/01/28 10:54:33;;;;;;;;;;;;;;;12.05;58.67;102456.34;6199515;23;19911;-76
2022/01/28 10:57:00;;;;;;;;;;;;;;;12.48;58.41;102464.75;6197479;23;19908;-74
2022/01/28 11:02:18;;;;;;;;;;;;;;;13.59;56.02;102464.50;6224077;23;19903;-73
2022/01/28 11:04:54;;;;;;;;;;;;;;;;;;;;;
2022/01/28 11:07:21;;;;;;;;;;;;;;;14.49;52.79;102463.28;6225677;23;19927;-74
2022/01/28 11:09:48;;;;;;;;;;;;;;;14.91;52.10;102453.09;6197996;23;19931;-75
2022/01/28 11:12:25;;;;;;;;;;;;;;;15.19;50.96;102450.34;6197394;23;20314;-76
2022/01/28 11:14:59;;;;;;;;;;;;;;;15.35;50.53;102461.66;6223972;23;19907;-75
2022/01/28 11:17:24;;;;;;;;;;;;;;;15.08;46.28;102470.53;6196987;23;19966;-75
2022/01/28 11:20:05;;;;;;;;;;;;;;;14.69;46.99;102456.56;6191556;23;20311;-75
2022/01/28 11:23:08;;;;;;;;;;;;;;;14.61;48.58;102454.16;6194285;23;19904;-73
2022/01/28 11:25:52;;;;;;;;;;;;;;;14.73;48.78;102449.47;6182578;23;19904;-77
2022/01/28 11:28:53;;;;;;;;;;;;;;;15.02;48.48;102443.97;6197949;23;19904;-77
2022/01/28 11:31:37;;;;;;;;;;;;;;;15.42;48.06;102432.00;6196582;23;19912;-75
2022/01/28 11:34:13;;;;;;;;;;;;;;;15.84;46.79;102412.31;6196880;23;19908;-76
2022/01/28 11:36:41;;;;;;;;;;;;;;;16.26;46.85;102413.69;6197484;23;19904;-77
2022/01/28 11:39:30;;;;;;;;;;;;;;;16.54;46.37;102398.88;6203885;23;19908;-75
2022/01/28 11:42:30;;;;;;;;;;;;;;;16.65;45.36;102385.16;6203660;23;19931;-77
2022/01/28 11:45:15;;;;;;;;;;;;;;;16.37;43.48;102382.38;6205642;23;19923;-76
2022/01/28 11:48:04;;;;;;;;;;;;;;;15.98;43.98;102381.59;6203228;23;20320;-75
2022/01/28 11:50:36;;;;;;;;;;;;;;;15.64;45.17;102379.69;6176635;23;19905;-75
2022/01/28 11:53:24;;;;;;;;;;;;;;;15.45;45.69;102384.63;6194005;23;19904;-78
2022/01/28 11:56:02;;;;;;;;;;;;;;;15.57;46.14;102379.03;6196619;23;19904;-77
2022/01/28 11:58:46;;;;;;;;;;;;;;;15.85;46.36;102366.22;6197970;23;19912;-79
2022/01/28 12:07:54;;;;;;;;;;;;;;;17.52;45.10;102358.34;6111096;23;19912;-77
2022/01/28 12:10:22;;;;;;;;;;;;;;;17.92;44.63;102351.41;6104596;23;20061;-76
2022/01/28 12:16:14;;;;;;;;;;;;;;;18.28;43.09;102342.41;6088137;23;19921;-77
2022/01/28 12:22:17;;;;;;;;;;;;;;;19.06;42.73;102335.94;6125766;23;19913;-76
2022/01/28 12:24:42;;;;;;;;;;;;;;;19.77;41.70;102336.97;6134539;23;19905;-79
2022/01/28 12:27:09;;;;;;;;;;;;;;;20.23;40.80;102341.50;6161476;23;19908;-78
2022/01/28 12:29:36;;;;;;;;;;;;;;;20.31;39.60;102335.38;6196600;23;19915;-76
2022/01/28 12:32:03;;;;;;;;;;;;;;;20.24;38.47;102326.53;6167954;23;20552;-79
2022/01/28 12:40:49;;;;;;;;;;;;;;;19.07;39.88;102303.50;6195856;23;19905;-76
2022/01/28 12:43:18;;;;;;;;;;;;;;;18.44;39.98;102302.59;6192711;23;19908;-78
2022/01/28 12:59:42;;;;;;;;;;;;;;;16.49;43.06;102315.94;6223327;23;19965;-77
2022/01/28 13:02:21;;;;;;;;;;;;;;;16.05;44.71;102313.25;6202297;23;19931;-77
2022/01/28 13:10:33;;;;;;;;;;;;;;;14.52;47.11;102290.44;6223203;23;19926;-76
2022/01/28 13:13:19;;;;;;;;;;;;;;;14.11;48.22;102285.81;6196592;23;19907;-77
2022/01/28 13:16:02;;;;;;;;;;;;;;;;;;;;;
2022/01/28 13:18:27;;;;;;;;;;;;;;;13.58;50.26;102275.91;6222968;23;19923;-78
2022/01/28 13:21:01;;;;;;;;;;;;;;;13.45;51.73;102277.00;6222476;23;19915;-78
2022/01/28 13:23:34;;;;;;;;;;;;;;;13.35;51.46;102274.84;6222050;23;19968;-77
2022/01/28 13:26:10;;;;;;;;;;;;;;;13.55;52.50;102274.50;6197068;23;19904;-76
2022/01/28 13:28:35;;;;;;;;;;;;;;;14.58;50.29;102267.44;6196580;23;19982;-77
2022/01/28 13:31:10;;;;;;;;;;;;;;;15.56;47.33;102266.22;6196887;23;20307;-75
2022/01/28 13:33:41;;;;;;;;;;;;;;;16.47;46.41;102257.41;6195989;23;20377;-76
2022/01/28 13:36:06;;;;;;;;;;;;;;;17.36;42.90;102254.22;6222542;23;19938;-76
2022/01/28 13:38:50;;;;;;;;;;;;;;;17.95;41.71;102261.47;6195426;23;20536;-76
2022/01/28 13:41:24;;;;;;;;;;;;;;;18.54;39.14;102262.16;6225451;23;19903;-77
2022/01/28 13:43:49;;;;;;;;;;;;;;;18.75;37.82;102258.28;6199182;23;19914;-77
2022/01/28 13:46:15;;;;;;;;;;;;;;;19.02;37.39;102268.28;6198548;23;19912;-77
2022/01/28 13:48:45;;;;;;;;;;;;;;;19.42;37.58;102255.47;6199589;23;20234;-81
2022/01/28 13:51:25;;;;;;;;;;;;;;;;;;;;;
2022/01/28 13:57:08;;;;;;;;;;;;;;;20.38;35.03;102240.59;6202527;23;20311;-81
2022/01/28 13:59:39;;;;;;;;;;;;;;;20.51;34.47;102230.78;6211872;23;19938;-78
2022/01/28 14:02:14;;;;;;;;;;;;;;;20.70;34.63;102226.19;6229307;23;19983;-79
2022/01/28 14:04:49;;;;;;;;;;;;;;;20.39;33.74;102234.75;6232324;23;19904;-79
2022/01/28 14:07:24;;;;;;;;;;;;;;;19.90;35.45;102227.25;6231086;23;19907;-80
2022/01/28 14:09:59;;;;;;;;;;;;;;;20.56;34.61;102228.78;6229517;23;19904;-77
2022/01/28 14:12:37;;;;;;;;;;;;;;;21.47;34.67;102220.97;6228679;23;19997;-74
2022/01/28 14:15:13;;;;;;;;;;;;;;;21.94;32.32;102233.19;6225251;23;19903;-75
2022/01/28 14:17:38;;;;;;;;;;;;;;;21.07;32.83;102224.75;6224826;23;19919;-75
2022/01/28 14:20:07;;;;;;;;;;;;;;;20.49;33.78;102219.13;6222804;23;19908;-75
2022/01/28 14:22:32;;;;;;;;;;;;;;;20.07;34.57;102214.97;6223877;23;19935;-74
2022/01/28 14:24:58;;;;;;;;;;;;;;;20.45;34.80;102227.19;6225692;23;19934;-78
2022/01/28 14:32:55;;;;;;;;;;;;;;;;;;;;;
2022/01/28 14:35:21;;;;;;;;;;;;;;;20.50;34.60;102202.16;6226962;23;19943;-77
2022/01/28 14:37:46;;;;;;;;;;;;;;;20.44;34.18;102202.47;6225936;23;19915;-80
2022/01/28 14:40:15;;;;;;;;;;;;;;;20.01;34.97;102212.22;6200359;23;19908;-77
2022/01/28 14:42:44;;;;;;;;;;;;;;;19.14;36.02;102204.22;6227074;23;19911;-77
2022/01/28 14:45:09;;;;;;;;;;;;;;;18.56;37.30;102199.84;6225624;23;19915;-76
2022/01/28 14:47:42;;;;;;;;;;;;;;;17.93;38.91;102202.78;6226983;23;19904;-76
2022/01/28 14:50:08;;;;;;;;;;;;;;;16.80;40.38;102191.94;6227922;23;19908;-76
2022/01/28 14:52:33;;;;;;;;;;;;;;;15.88;43.81;102186.41;6226383;23;19936;-75
2022/01/28 14:54:59;;;;;;;;;;;;;;;15.55;44.46;102182.69;6224879;23;20343;-75
2022/01/28 14:57:27;;;;;;;;;;;;;;;14.91;45.64;102178.50;6227024;23;19915;-74
2022/01/28 14:59:52;;;;;;;;;;;;;;;14.39;47.60;102176.81;6224551;23;20574;-75
2022/01/28 15:02:22;;;;;;;;;;;;;;;14.04;48.65;102183.34;6200771;23;19916;-76
2022/01/28 15:04:48;;;;;;;;;;;;;;;13.64;49.74;102176.00;6226529;23;19924;-76
2022/01/28 15:07:33;;;;;;;;;;;;;;;13.37;50.26;102179.28;6226623;23;20330;-75
2022/01/28 15:10:02;;;;;;;;;;;;;;;13.15;50.38;102169.97;6226876;23;20000;-75
2022/01/28 15:12:29;;;;;;;;;;;;;;;13.04;51.37;102169.75;6199766;23;20467;-75
2022/01/28 15:14:54;;;;;;;;;;;;;;;12.85;52.99;102179.16;6225960;23;19904;-79
2022/01/28 15:17:20;;;;;;;;;;;;;;;12.59;53.27;102181.31;6230119;23;19971;-79
2022/01/28 15:19:48;;;;;;;;;;;;;;;12.45;53.92;102169.69;6228853;23;19956;-77
2022/01/28 15:22:17;;;;;;;;;;;;;;;12.33;54.90;102172.44;6229778;23;19904;-78
2022/01/28 15:24:44;;;;;;;;;;;;;;;12.28;55.84;102172.31;6228809;23;19931;-78
2022/01/28 15:27:20;;;;;;;;;;;;;;;;;;;;;
2022/01/28 15:29:49;;;;;;;;;;;;;;;12.56;56.48;102181.78;6231921;23;19939;-82
2022/01/28 15:37:59;;;;;;;;;;;;;;;14.18;52.76;102185.78;6242170;23;19903;-79
2022/01/28 15:40:27;;;;;;;;;;;;;;;14.35;51.36;102192.16;6230217;23;19995;-79
2022/01/28 15:43:00;;;;;;;;;;;;;;;13.93;51.44;102189.72;6231232;23;19923;-81
2022/01/28 15:45:49;;;;;;;;;;;;;;;;;;;;;
2022/01/28 15:48:18;;;;;;;;;;;;;;;12.80;54.61;102193.59;6230306;23;19938;-75
2022/01/28 15:51:04;;;;;;;;;;;;;;;12.46;55.48;102195.25;6228050;23;19987;-81
2022/01/28 15:53:40;;;;;;;;;;;;;;;12.20;56.25;102200.06;6231875;23;19989;-76
2022/01/28 15:56:21;;;;;;;;;;;;;;;11.95;57.05;102190.06;6228740;23;19910;-74
2022/01/28 15:58:49;;;;;;;;;;;;;;;11.72;58.07;102203.66;6227501;23;19922;-78
2022/01/28 16:01:15;;;;;;;;;;;;;;;11.57;58.73;102199.41;6203775;23;19908;-76
2022/01/28 16:03:40;;;;;;;;;;;;;;;11.49;59.15;102194.22;6230587;23;19914;-75
2022/01/28 16:06:11;;;;;;;;;;;;;;;11.39;59.54;102193.91;6226091;23;20286;-76
2022/01/28 16:08:41;;;;;;;;;;;;;;;11.34;59.96;102195.44;6226536;23;19907;-77
2022/01/28 16:13:55;;;;;;;;;;;;;;;11.24;60.72;102192.38;6222769;23;19912;-75
2022/01/28 16:19:04;;;;;;;;;;;;;;;11.22;60.61;102183.56;6226829;23;19983;-74
2022/01/28 16:52:34;;;;;;;;;;;;;;;10.86;63.24;102182.44;6126952;23;20399;-77
2022/01/28 16:55:05;;;;;;;;;;;;;;;10.83;64.04;102177.44;6203896;23;19935;-77
2022/01/28 16:57:31;;;;;;;;;;;;;;;10.81;63.50;102174.09;6221805;23;19903;-74
2022/01/28 16:59:57;;;;;;;;;;;;;;;10.76;64.48;102172.03;6223220;23;19934;-76
2022/01/28 17:02:22;;;;;;;;;;;;;;;10.75;64.03;102172.25;6222483;23;19907;-75
2022/01/28 17:04:50;;;;;;;;;;;;;;;10.74;63.82;102176.03;6195343;23;20727;-75
2022/01/28 17:07:16;;;;;;;;;;;;;;;10.69;64.31;102170.41;6195903;23;19908;-76
2022/01/28 17:09:51;;;;;;;;;;;;;;;10.62;64.57;102160.34;6194615;23;19939;-72
2022/01/28 17:14:51;;;;;;;;;;;;;;;10.49;65.50;102146.81;6234150;23;19903;-76
2022/01/28 17:17:26;;;;;;;;;;;;;;;10.35;66.54;102145.22;6203272;23;19911;-78
2022/01/28 17:22:50;;;;;;;;;;;;;;;10.25;67.32;102143.81;6105215;23;19933;-76
2022/01/28 17:25:16;;;;;;;;;;;;;;;10.24;67.35;102139.38;6188291;23;19953;-77
2022/01/28 17:27:41;;;;;;;;;;;;;;;10.23;67.23;102134.97;6228051;23;19908;-76
2022/01/28 17:30:07;;;;;;;;;;;;;;;10.19;67.78;102141.97;6200539;23;19914;-77
2022/01/28 17:32:36;;;;;;;;;;;;;;;10.12;68.40;102132.97;6199513;23;19952;-74
2022/01/28 17:35:15;;;;;;;;;;;;;;;;;;;;;
2022/01/28 17:37:51;;;;;;;;;;;;;;;;;;;;;
2022/01/28 17:40:17;;;;;;;;;;;;;;;10.03;69.41;102131.53;6227432;23;19924;-75
2022/01/28 17:42:42;;;;;;;;;;;;;;;10.00;69.47;102134.72;6197196;23;19903;-77
2022/01/28 17:45:18;;;;;;;;;;;;;;;9.99;69.41;102130.31;6229112;23;19911;-74
2022/01/28 17:47:46;;;;;;;;;;;;;;;9.89;70.08;102131.63;6223276;23;19904;-73
2022/01/28 17:50:14;;;;;;;;;;;;;;;9.85;70.72;102119.47;6171807;23;19961;-73
2022/01/28 17:52:40;;;;;;;;;;;;;;;9.78;71.03;102124.13;6170565;23;19919;-74
2022/01/28 17:55:16;;;;;;;;;;;;;;;9.74;71.19;102122.91;6171187;23;19908;-74
2022/01/28 17:58:05;;;;;;;;;;;;;;;9.64;71.76;102114.31;6170435;23;19912;-76
2022/01/28 18:00:39;;;;;;;;;;;;;;;9.51;72.24;102124.28;6196193;23;19919;-74
2022/01/28 18:05:59;;;;;;;;;;;;;;;9.32;73.06;102103.38;6209929;23;19911;-73
2022/01/28 18:08:45;;;;;;;;;;;;;;;9.35;73.25;102106.50;6223017;23;19903;-74
2022/01/28 18:11:10;;;;;;;;;;;;;;;9.26;73.36;102116.81;6216989;23;19908;-75
2022/01/28 18:26:07;;;;;;;;;;;;;;;9.26;73.71;102078.59;6121404;23;19963;-77
2022/01/28 18:28:32;;;;;;;;;;;;;;;9.21;74.29;102075.69;6111211;23;19915;-75
2022/01/28 18:31:08;;;;;;;;;;;;;;;9.13;74.92;102089.56;6158305;23;19916;-74
2022/01/28 18:33:33;;;;;;;;;;;;;;;9.07;75.90;102093.19;6157672;23;19904;-74
2022/01/28 18:36:01;;;;;;;;;;;;;;;9.03;76.60;102067.38;6111771;23;19908;-78
2022/01/28 18:38:27;;;;;;;;;;;;;;;9.06;76.94;102064.19;6222197;23;19908;-79
2022/01/28 18:41:20;;;;;;;;;;;;;;;9.17;76.52;102070.88;6224171;23;19958;-77
2022/01/28 18:43:53;;;;;;;;;;;;;;;9.21;76.80;102081.16;6224923;23;19951;-77
2022/01/28 18:49:47;;;;;;;;;;;;;;;9.32;76.52;102078.81;6163348;23;20046;-76
2022/01/28 18:58:32;;;;;;;;;;;;;;;9.60;76.11;102068.34;6150951;23;19917;-76
2022/01/28 19:01:29;;;;;;;;;;;;;;;;;;;;;
2022/01/28 19:06:57;;;;;;;;;;;;;;;9.56;76.31;102050.75;6075747;23;19905;-78
2022/01/28 19:15:30;;;;;;;;;;;;;;;9.72;76.45;102054.81;6023596;23;20412;-77